sensor_id;sensor_type;location;lat;lon;timestamp;pressure;altitude;pressure_sealevel;temperature;humidity
63090;BME280;49174;43.198;27.824;2023-03-26T00:02:05;100721.69;;;8.45;100.00
63090;BME280;49174;43.198;27.824;2023-03-26T00:04:31;100715.31;;;8.38;100.00
63090;BME280;49174;43.198;27.824;2023-03-26T00:06:58;100728.25;;;8.42;100.00
63090;BME280;49174;43.198;27.824;2023-03-26T00:09:24;100734.91;;;8.46;100.00
63090;BME280;49174;43.198;27.824;2023-03-26T00:11:49;100741.91;;;8.56;100.00
63090;BME280;49174;43.198;27.824;2023-03-26T00:14:15;100742.75;;;8.71;100.00
63090;BME280;49174;43.198;27.824;2023-03-26T00:16:42;100740.34;;;8.76;100.00
63090;BME280;49174;43.198;27.824;2023-03-26T00:19:08;100756.09;;;8.79;100.00
63090;BME280;49174;43.198;27.824;2023-03-26T00:21:34;100744.78;;;8.69;100.00
63090;BME280;49174;43.198;27.824;2023-03-26T00:24:04;100763.81;;;8.67;100.00
63090;BME280;49174;43.198;27.824;2023-03-26T00:26:32;100753.97;;;8.75;100.00
63090;BME280;49174;43.198;27.824;2023-03-26T00:28:58;100750.66;;;8.72;100.00
63090;BME280;49174;43.198;27.824;2023-03-26T00:31:24;100754.78;;;8.60;100.00
63090;BME280;49174;43.198;27.824;2023-03-26T00:33:50;100747.91;;;8.58;100.00
63090;BME280;49174;43.198;27.824;2023-03-26T00:36:19;100752.59;;;8.64;100.00
63090;BME280;49174;43.198;27.824;2023-03-26T00:38:45;100748.94;;;8.57;100.00
63090;BME280;49174;43.198;27.824;2023-03-26T00:41:13;100746.53;;;8.62;100.00
63090;BME280;49174;43.198;27.824;2023-03-26T00:43:50;100750.59;;;8.58;100.00
63090;BME280;49174;43.198;27.824;2023-03-26T00:46:16;100753.59;;;8.63;100.00
63090;BME280;49174;43.198;27.824;2023-03-26T00:48:42;100754.63;;;8.62;100.00
63090;BME280;49174;43.198;27.824;2023-03-26T00:51:08;100758.31;;;8.61;100.00
63090;BME280;49174;43.198;27.824;2023-03-26T00:53:34;100753.72;;;8.69;100.00
63090;BME280;49174;43.198;27.824;2023-03-26T00:56:04;100760.56;;;8.72;100.00
63090;BME280;49174;43.198;27.824;2023-03-26T00:58:30;100759.72;;;8.71;100.00
63090;BME280;49174;43.198;27.824;2023-03-26T01:00:56;100765.22;;;8.78;100.00
63090;BME280;49174;43.198;27.824;2023-03-26T01:03:22;100761.19;;;8.74;100.00
63090;BME280;49174;43.198;27.824;2023-03-26T02:16:36;100757.41;;;9.28;100.00
63090;BME280;49174;43.198;27.824;2023-03-26T02:21:44;100763.72;;;9.20;100.00
63090;BME280;49174;43.198;27.824;2023-03-26T03:03:37;100767.88;;;9.37;100.00
63090;BME280;49174;43.198;27.824;2023-03-26T03:06:03;100769.25;;;9.48;100.00
63090;BME280;49174;43.198;27.824;2023-03-26T03:08:29;100763.19;;;9.46;100.00
63090;BME280;49174;43.198;27.824;2023-03-26T03:35:12;100779.25;;;10.12;100.00
63090;BME280;49174;43.198;27.824;2023-03-26T03:37:37;100782.66;;;10.21;100.00
63090;BME280;49174;43.198;27.824;2023-03-26T03:40:03;100784.47;;;10.35;100.00
63090;BME280;49174;43.198;27.824;2023-03-26T03:42:32;100797.25;;;10.48;100.00
63090;BME280;49174;43.198;27.824;2023-03-26T03:44:58;100791.06;;;10.54;100.00
63090;BME280;49174;43.198;27.824;2023-03-26T03:47:23;100796.31;;;10.62;100.00
63090;BME280;49174;43.198;27.824;2023-03-26T03:49:49;100809.69;;;10.77;100.00
63090;BME280;49174;43.198;27.824;2023-03-26T03:52:15;100814.38;;;10.90;100.00
63090;BME280;49174;43.198;27.824;2023-03-26T03:54:42;100819.47;;;11.06;100.00
63090;BME280;49174;43.198;27.824;2023-03-26T03:57:07;100816.38;;;11.09;100.00
63090;BME280;49174;43.198;27.824;2023-03-26T03:59:33;100816.19;;;11.17;100.00
63090;BME280;49174;43.198;27.824;2023-03-26T04:01:58;100809.19;;;11.23;100.00
63090;BME280;49174;43.198;27.824;2023-03-26T04:04:23;100814.34;;;11.25;100.00
63090;BME280;49174;43.198;27.824;2023-03-26T04:09:31;100812.53;;;11.32;100.00
63090;BME280;49174;43.198;27.824;2023-03-26T04:11:56;100810.06;;;11.37;100.00
63090;BME280;49174;43.198;27.824;2023-03-26T04:14:22;100817.53;;;11.35;100.00
63090;BME280;49174;43.198;27.824;2023-03-26T04:51:53;100853.88;;;11.74;100.00
63090;BME280;49174;43.198;27.824;2023-03-26T04:54:20;100857.81;;;11.71;100.00
63090;BME280;49174;43.198;27.824;2023-03-26T05:00:08;100853.91;;;11.80;100.00
63090;BME280;49174;43.198;27.824;2023-03-26T05:37:37;100863.63;;;12.10;99.87
63090;BME280;49174;43.198;27.824;2023-03-26T05:54:08;100862.84;;;12.49;96.73
63090;BME280;49174;43.198;27.824;2023-03-26T05:56:51;100865.34;;;12.50;96.80
63090;BME280;49174;43.198;27.824;2023-03-26T06:47:10;100907.84;;;12.83;93.48
63090;BME280;49174;43.198;27.824;2023-03-26T07:14:48;100931.19;;;13.24;84.15
63090;BME280;49174;43.198;27.824;2023-03-26T07:17:15;100929.97;;;13.27;83.30
63090;BME280;49174;43.198;27.824;2023-03-26T07:19:41;100924.06;;;13.23;83.42
63090;BME280;49174;43.198;27.824;2023-03-26T07:22:07;100932.03;;;13.31;82.63
63090;BME280;49174;43.198;27.824;2023-03-26T07:35:16;100920.25;;;13.77;83.37
63090;BME280;49174;43.198;27.824;2023-03-26T07:40:36;100920.91;;;13.66;78.84
63090;BME280;49174;43.198;27.824;2023-03-26T07:46:01;100910.28;;;13.71;79.61
63090;BME280;49174;43.198;27.824;2023-03-26T07:56:58;100889.84;;;13.62;77.00
63090;BME280;49174;43.198;27.824;2023-03-26T08:14:56;100865.78;;;13.85;76.52
63090;BME280;49174;43.198;27.824;2023-03-26T08:17:40;100860.31;;;13.99;76.37
63090;BME280;49174;43.198;27.824;2023-03-26T08:26:34;100860.63;;;14.47;74.84
63090;BME280;49174;43.198;27.824;2023-03-26T08:28:37;100865.59;;;14.57;72.93
63090;BME280;49174;43.198;27.824;2023-03-26T08:31:06;100872.63;;;14.65;73.02
63090;BME280;49174;43.198;27.824;2023-03-26T08:36:07;100868.16;;;14.77;71.03
63090;BME280;49174;43.198;27.824;2023-03-26T08:38:34;100870.38;;;14.87;73.41
63090;BME280;49174;43.198;27.824;2023-03-26T08:51:44;100879.59;;;15.29;70.13
63090;BME280;49174;43.198;27.824;2023-03-26T08:57:19;100886.75;;;15.24;69.73
63090;BME280;49174;43.198;27.824;2023-03-26T09:00:05;100885.50;;;15.01;68.99
63090;BME280;49174;43.198;27.824;2023-03-26T09:10:31;100883.84;;;15.44;67.45
63090;BME280;49174;43.198;27.824;2023-03-26T09:15:40;100886.22;;;15.77;66.64
63090;BME280;49174;43.198;27.824;2023-03-26T09:36:52;100911.41;;;16.51;57.73
63090;BME280;49174;43.198;27.824;2023-03-26T09:39:35;100918.25;;;16.42;59.44
63090;BME280;49174;43.198;27.824;2023-03-26T09:53:11;100930.34;;;15.97;60.52
63090;BME280;49174;43.198;27.824;2023-03-26T09:56:00;100922.63;;;15.94;59.36
63090;BME280;49174;43.198;27.824;2023-03-26T10:01:06;100913.00;;;16.40;59.78
63090;BME280;49174;43.198;27.824;2023-03-26T10:03:46;100915.81;;;16.64;60.46
63090;BME280;49174;43.198;27.824;2023-03-26T10:06:35;100914.13;;;16.81;58.68
63090;BME280;49174;43.198;27.824;2023-03-26T10:09:17;100915.13;;;17.22;58.52
63090;BME280;49174;43.198;27.824;2023-03-26T10:11:54;100919.38;;;17.41;57.59
63090;BME280;49174;43.198;27.824;2023-03-26T10:14:37;100917.94;;;17.15;57.48
63090;BME280;49174;43.198;27.824;2023-03-26T10:29:59;100934.72;;;18.06;54.50
63090;BME280;49174;43.198;27.824;2023-03-26T10:32:29;100929.41;;;18.00;52.96
63090;BME280;49174;43.198;27.824;2023-03-26T10:43:09;100922.44;;;17.10;53.65
63090;BME280;49174;43.198;27.824;2023-03-26T10:45:39;100911.31;;;17.35;57.78
63090;BME280;49174;43.198;27.824;2023-03-26T10:58:38;100922.78;;;17.60;55.78
63090;BME280;49174;43.198;27.824;2023-03-26T11:01:09;100925.78;;;17.35;54.23
63090;BME280;49174;43.198;27.824;2023-03-26T11:13:57;100946.41;;;17.08;53.98
63090;BME280;49174;43.198;27.824;2023-03-26T11:19:15;100937.38;;;16.95;55.10
63090;BME280;49174;43.198;27.824;2023-03-26T11:32:01;100935.03;;;17.34;54.96
63090;BME280;49174;43.198;27.824;2023-03-26T11:37:20;100926.13;;;17.86;54.15
63090;BME280;49174;43.198;27.824;2023-03-26T11:39:49;100921.41;;;18.10;51.96
63090;BME280;49174;43.198;27.824;2023-03-26T11:42:16;100924.75;;;18.12;51.30
63090;BME280;49174;43.198;27.824;2023-03-26T11:44:47;100926.09;;;17.98;52.00
63090;BME280;49174;43.198;27.824;2023-03-26T11:47:14;100920.28;;;17.82;51.43
63090;BME280;49174;43.198;27.824;2023-03-26T11:49:43;100920.06;;;17.60;51.45
63090;BME280;49174;43.198;27.824;2023-03-26T11:52:10;100914.16;;;17.28;51.89
63090;BME280;49174;43.198;27.824;2023-03-26T11:54:36;100920.91;;;17.37;51.73
63090;BME280;49174;43.198;27.824;2023-03-26T11:57:09;100903.44;;;17.85;51.06
63090;BME280;49174;43.198;27.824;2023-03-26T12:07:19;100901.09;;;18.92;47.92
63090;BME280;49174;43.198;27.824;2023-03-26T12:12:37;100905.06;;;19.01;46.67
63090;BME280;49174;43.198;27.824;2023-03-26T12:15:04;100907.69;;;19.13;46.94
63090;BME280;49174;43.198;27.824;2023-03-26T12:17:36;100903.19;;;19.40;46.05
63090;BME280;49174;43.198;27.824;2023-03-26T12:22:49;100905.00;;;19.52;44.95
63090;BME280;49174;43.198;27.824;2023-03-26T12:30:17;100904.66;;;19.87;44.47
63090;BME280;49174;43.198;27.824;2023-03-26T12:32:44;100913.06;;;19.63;44.13
63090;BME280;49174;43.198;27.824;2023-03-26T12:35:13;100900.22;;;19.42;44.80
63090;BME280;49174;43.198;27.824;2023-03-26T12:37:42;100903.53;;;19.27;44.57
63090;BME280;49174;43.198;27.824;2023-03-26T12:42:54;100889.06;;;18.76;45.65
63090;BME280;49174;43.198;27.824;2023-03-26T12:45:21;100893.00;;;18.68;45.44
63090;BME280;49174;43.198;27.824;2023-03-26T12:47:47;100878.94;;;18.77;44.31
63090;BME280;49174;43.198;27.824;2023-03-26T12:50:13;100884.13;;;18.61;45.21
63090;BME280;49174;43.198;27.824;2023-03-26T12:55:12;100868.84;;;18.31;46.18
63090;BME280;49174;43.198;27.824;2023-03-26T12:57:47;100855.44;;;18.47;45.91
63090;BME280;49174;43.198;27.824;2023-03-26T13:02:57;100861.97;;;18.74;46.39
63090;BME280;49174;43.198;27.824;2023-03-26T13:10:39;100859.00;;;18.76;45.26
63090;BME280;49174;43.198;27.824;2023-03-26T13:18:09;100846.88;;;17.81;45.95
63090;BME280;49174;43.198;27.824;2023-03-26T13:23:53;100849.88;;;17.56;47.68
63090;BME280;49174;43.198;27.824;2023-03-26T13:31:17;100843.38;;;17.22;47.86
63090;BME280;49174;43.198;27.824;2023-03-26T13:36:35;100840.66;;;17.74;48.05
63090;BME280;49174;43.198;27.824;2023-03-26T13:39:12;100834.00;;;17.93;46.66
63090;BME280;49174;43.198;27.824;2023-03-26T13:41:43;100833.84;;;18.28;46.68
63090;BME280;49174;43.198;27.824;2023-03-26T13:44:15;100847.34;;;18.69;45.39
63090;BME280;49174;43.198;27.824;2023-03-26T13:46:48;100848.16;;;18.81;44.70
63090;BME280;49174;43.198;27.824;2023-03-26T13:54:44;100833.06;;;19.34;44.30
63090;BME280;49174;43.198;27.824;2023-03-26T13:57:17;100832.50;;;19.54;44.00
63090;BME280;49174;43.198;27.824;2023-03-26T14:02:12;100830.41;;;19.83;44.55
63090;BME280;49174;43.198;27.824;2023-03-26T14:04:46;100820.13;;;20.18;41.40
63090;BME280;49174;43.198;27.824;2023-03-26T14:07:35;100819.66;;;20.26;38.84
63090;BME280;49174;43.198;27.824;2023-03-26T14:10:12;100827.34;;;20.29;40.47
63090;BME280;49174;43.198;27.824;2023-03-26T14:15:15;100825.88;;;19.94;42.49
63090;BME280;49174;43.198;27.824;2023-03-26T14:22:50;100821.41;;;20.10;42.20
63090;BME280;49174;43.198;27.824;2023-03-26T14:26:21;100825.16;;;20.04;41.60
63090;BME280;49174;43.198;27.824;2023-03-26T14:28:25;100827.34;;;19.58;41.37
63090;BME280;49174;43.198;27.824;2023-03-26T14:38:29;100825.66;;;19.13;42.45
63090;BME280;49174;43.198;27.824;2023-03-26T14:54:07;100824.88;;;18.79;49.66
63090;BME280;49174;43.198;27.824;2023-03-26T15:37:56;100870.84;;;15.27;63.97
63090;BME280;49174;43.198;27.824;2023-03-26T15:40:39;100864.88;;;15.18;64.27
63090;BME280;49174;43.198;27.824;2023-03-26T15:43:14;100871.78;;;15.14;65.08
63090;BME280;49174;43.198;27.824;2023-03-26T15:58:59;100885.44;;;14.19;70.18
63090;BME280;49174;43.198;27.824;2023-03-26T16:06:50;100887.75;;;13.64;73.33
63090;BME280;49174;43.198;27.824;2023-03-26T16:11:57;100903.38;;;13.75;72.94
63090;BME280;49174;43.198;27.824;2023-03-26T16:17:11;100914.44;;;13.67;73.08
63090;BME280;49174;43.198;27.824;2023-03-26T16:22:11;100917.84;;;13.49;73.45
63090;BME280;49174;43.198;27.824;2023-03-26T16:24:43;100929.94;;;13.47;73.80
63090;BME280;49174;43.198;27.824;2023-03-26T16:34:56;100944.31;;;13.01;75.93
63090;BME280;49174;43.198;27.824;2023-03-26T16:39:50;100953.88;;;12.83;78.04
63090;BME280;49174;43.198;27.824;2023-03-26T16:47:27;100964.00;;;12.48;80.10
63090;BME280;49174;43.198;27.824;2023-03-26T16:55:22;100990.56;;;12.18;81.48
63090;BME280;49174;43.198;27.824;2023-03-26T17:03:05;100995.31;;;11.25;86.82
63090;BME280;49174;43.198;27.824;2023-03-26T18:38:32;101088.56;;;10.18;93.32
63090;BME280;49174;43.198;27.824;2023-03-26T21:32:24;101004.59;;;6.54;100.00
63090;BME280;49174;43.198;27.824;2023-03-26T21:34:50;101018.50;;;6.57;100.00
63090;BME280;49174;43.198;27.824;2023-03-26T21:37:16;101019.22;;;6.67;100.00
63090;BME280;49174;43.198;27.824;2023-03-26T21:39:44;101015.53;;;6.77;100.00
63090;BME280;49174;43.198;27.824;2023-03-26T21:42:10;101019.75;;;6.87;100.00
63090;BME280;49174;43.198;27.824;2023-03-26T21:44:36;101010.38;;;6.83;99.71
63090;BME280;49174;43.198;27.824;2023-03-26T21:47:02;101007.81;;;6.65;100.00
63090;BME280;49174;43.198;27.824;2023-03-26T21:49:27;101001.56;;;6.48;97.47
63090;BME280;49174;43.198;27.824;2023-03-26T21:51:53;100992.97;;;6.29;99.64
63090;BME280;49174;43.198;27.824;2023-03-26T21:54:20;100995.63;;;6.20;100.00
63090;BME280;49174;43.198;27.824;2023-03-26T21:56:49;101006.97;;;6.06;100.00
63090;BME280;49174;43.198;27.824;2023-03-26T22:02:06;101015.06;;;5.88;99.33
63090;BME280;49174;43.198;27.824;2023-03-26T22:04:35;101010.28;;;5.74;98.84
63090;BME280;49174;43.198;27.824;2023-03-26T22:07:10;101009.72;;;5.62;100.00
63090;BME280;49174;43.198;27.824;2023-03-26T22:09:37;101002.31;;;5.56;100.00
63090;BME280;49174;43.198;27.824;2023-03-26T22:12:03;101000.09;;;5.51;100.00
63090;BME280;49174;43.198;27.824;2023-03-26T22:14:29;100997.44;;;5.51;100.00
63090;BME280;49174;43.198;27.824;2023-03-26T22:16:55;100992.56;;;5.47;100.00
63090;BME280;49174;43.198;27.824;2023-03-26T22:19:20;101004.44;;;5.44;100.00
63090;BME280;49174;43.198;27.824;2023-03-26T22:21:45;101005.13;;;5.46;100.00
63090;BME280;49174;43.198;27.824;2023-03-26T22:24:11;101006.66;;;5.57;100.00
63090;BME280;49174;43.198;27.824;2023-03-26T22:26:36;101016.03;;;5.53;100.00
63090;BME280;49174;43.198;27.824;2023-03-26T22:29:02;101003.00;;;5.58;100.00
63090;BME280;49174;43.198;27.824;2023-03-26T22:31:28;100991.16;;;5.60;100.00
63090;BME280;49174;43.198;27.824;2023-03-26T22:33:54;100985.63;;;5.62;100.00
63090;BME280;49174;43.198;27.824;2023-03-26T22:36:20;100987.97;;;5.65;100.00
63090;BME280;49174;43.198;27.824;2023-03-26T22:38:45;100988.03;;;5.73;100.00
63090;BME280;49174;43.198;27.824;2023-03-26T22:41:10;100987.03;;;5.74;99.29
63090;BME280;49174;43.198;27.824;2023-03-26T22:43:37;100990.66;;;5.65;100.00
63090;BME280;49174;43.198;27.824;2023-03-26T22:46:03;100988.63;;;5.59;100.00
63090;BME280;49174;43.198;27.824;2023-03-26T22:48:29;100986.44;;;5.54;100.00
63090;BME280;49174;43.198;27.824;2023-03-26T22:51:02;100980.75;;;5.57;100.00
63090;BME280;49174;43.198;27.824;2023-03-26T22:53:27;100979.59;;;5.60;100.00
63090;BME280;49174;43.198;27.824;2023-03-26T22:55:53;100983.00;;;5.70;100.00
63090;BME280;49174;43.198;27.824;2023-03-26T22:58:18;100980.00;;;5.73;100.00
63090;BME280;49174;43.198;27.824;2023-03-26T23:00:45;100979.28;;;5.63;100.00
63090;BME280;49174;43.198;27.824;2023-03-26T23:03:11;100972.88;;;5.56;100.00
63090;BME280;49174;43.198;27.824;2023-03-26T23:05:38;100969.75;;;5.60;100.00
63090;BME280;49174;43.198;27.824;2023-03-26T23:08:04;100966.03;;;5.62;100.00
63090;BME280;49174;43.198;27.824;2023-03-26T23:10:32;100965.25;;;5.69;100.00
63090;BME280;49174;43.198;27.824;2023-03-26T23:12:57;100958.56;;;5.73;100.00
63090;BME280;49174;43.198;27.824;2023-03-26T23:15:23;100952.72;;;5.70;100.00
63090;BME280;49174;43.198;27.824;2023-03-26T23:17:50;100948.47;;;5.59;100.00
63090;BME280;49174;43.198;27.824;2023-03-26T23:20:16;100948.91;;;5.46;100.00
63090;BME280;49174;43.198;27.824;2023-03-26T23:22:41;100949.00;;;5.36;100.00
63090;BME280;49174;43.198;27.824;2023-03-26T23:25:07;100942.47;;;5.31;100.00
63090;BME280;49174;43.198;27.824;2023-03-26T23:27:34;100938.44;;;5.27;100.00
63090;BME280;49174;43.198;27.824;2023-03-26T23:29:59;100938.69;;;5.15;100.00
63090;BME280;49174;43.198;27.824;2023-03-26T23:32:25;100945.19;;;5.13;100.00
63090;BME280;49174;43.198;27.824;2023-03-26T23:34:52;100939.84;;;5.13;100.00
63090;BME280;49174;43.198;27.824;2023-03-26T23:37:20;100933.69;;;5.21;100.00
63090;BME280;49174;43.198;27.824;2023-03-26T23:39:50;100941.56;;;5.22;100.00
63090;BME280;49174;43.198;27.824;2023-03-26T23:42:16;100940.88;;;5.20;100.00
63090;BME280;49174;43.198;27.824;2023-03-26T23:44:42;100946.22;;;5.20;100.00
63090;BME280;49174;43.198;27.824;2023-03-26T23:47:07;100931.50;;;5.16;100.00
63090;BME280;49174;43.198;27.824;2023-03-26T23:49:34;100938.00;;;5.13;100.00
63090;BME280;49174;43.198;27.824;2023-03-26T23:52:01;100933.47;;;5.14;100.00
63090;BME280;49174;43.198;27.824;2023-03-26T23:54:26;100935.59;;;5.02;100.00
63090;BME280;49174;43.198;27.824;2023-03-26T23:56:52;100937.28;;;4.85;100.00
63090;BME280;49174;43.198;27.824;2023-03-26T23:59:19;100930.19;;;4.76;100.00
